Fulton, Maryland
Current Conditions -  °F | °C
As of 4:00 PM on Tuesday 27 Jan 2015 (Local Time) from KFME Reporting Station
Clear Clear  
Wind Chill: 22°   Ceiling: Unl
Heat Index: 32°   Visibility: 10mi
Dew Point: 23°   Wind: 15mph
Humidity: 69%   Direction: 290°WNW
Pressure: 29.81"   Gusts: 20mph
Location:  39.15°N, 76.92°W
Report Text: KFME 272100Z AUTO 29013G17KT 10SM CLR 00/M05 A2981 RMK AO1
Loading
Personal Weather Stations






























Interactive Weather Map New forecast layout! Learn more

10-Day Weather Forecast

Advertisements
Track Severe Weather on mobile